Search for airport 
image banner adimage banner adimage banner ad
image banner ad

PS41 - Upmc-Horizon Hospital/Shenango Campus

Located in Farrell, United States

ICAO - PS41, IATA -

Data provided by Airmate  

General information

Coordinates: N41°12'35" W80°28'8"
Elevation is 1121 feet MSL.
Magnetic variation is -09° East
View others Airports in Pennsylvania

Operational data

Special qualification required
Current time UTC:
Current local time:
Weather at : KYNG - Youngstown-Warren Rgnl ( 19 km )
METAR: KYNG 291527Z 23012G20KT 10SM FEW020 SCT070 OVC090 24/21 A2989 RMK AO2 T02440206 $
TAF: KYNG 291120Z 2912/3012 20005KT P6SM VCSH OVC060 FM291400 19006KT 6SM -SHRA BR OVC045 TEMPO 2914/2918 VRB15G30KT 4SM TSRA OVC040CB FM291800 24010KT P6SM -SHRA VCTS OVC025CB FM292300 30006KT P6SM VCSH BKN050 FM300500 33005KT P6SM BKN035
View NOTAMs / SUP AIP / TFR affecting this airport [VIEW]
Communications frequencies: [VIEW]

Runways:

Airport contact information

Address: Farrell United States

Satellite view of PS41